createdAt,value
2022-08-16T00:00:03.868Z,4.43
2022-08-16T00:01:06.838Z,5.00
2022-08-16T00:02:13.066Z,4.50
2022-08-16T00:03:15.048Z,4.90
2022-08-16T00:04:17.511Z,5.17
2022-08-16T00:05:21.111Z,4.67
2022-08-16T00:06:23.362Z,4.90
2022-08-16T00:07:24.868Z,5.13
2022-08-16T00:08:36.955Z,5.50
2022-08-16T00:09:38.975Z,4.90
2022-08-16T00:10:43.547Z,5.73
2022-08-16T00:11:46.509Z,4.63
2022-08-16T00:12:54.805Z,5.40
2022-08-16T00:13:56.386Z,4.77
2022-08-16T00:15:00.429Z,5.27
2022-08-16T00:17:05.423Z,5.50
2022-08-16T00:17:26.412Z,4.97
2022-08-16T00:18:31.598Z,5.60
2022-08-16T00:19:41.830Z,5.17
2022-08-16T00:20:46.852Z,5.17
2022-08-16T00:21:53.392Z,4.77
2022-08-16T00:22:57.935Z,5.33
2022-08-16T00:23:59.789Z,4.90
2022-08-16T00:25:10.957Z,5.40
2022-08-16T00:26:35.510Z,5.50
2022-08-16T00:27:34.593Z,4.90
2022-08-16T00:28:36.300Z,5.93
2022-08-16T00:29:37.993Z,5.37
2022-08-16T00:30:40.219Z,5.40
2022-08-16T00:32:00.660Z,4.57
2022-08-16T00:33:07.550Z,5.23
2022-08-16T00:34:09.957Z,4.90
2022-08-16T00:35:25.798Z,4.80
2022-08-16T00:36:30.577Z,5.67
2022-08-16T00:37:58.409Z,5.77
2022-08-16T00:38:54.200Z,5.47
2022-08-16T00:39:58.505Z,5.60
2022-08-16T00:41:01.354Z,4.30
2022-08-16T00:42:03.526Z,5.60
2022-08-16T00:43:11.735Z,5.77
2022-08-16T00:44:15.966Z,5.53
2022-08-16T00:45:57.790Z,4.73
2022-08-16T00:47:06.764Z,5.00
2022-08-16T00:48:30.396Z,5.37
2022-08-16T00:49:39.455Z,4.53
2022-08-16T00:50:46.410Z,4.40
2022-08-16T00:51:55.071Z,4.83
2022-08-16T00:52:57.721Z,5.27
2022-08-16T00:54:01.414Z,5.50
2022-08-16T00:55:03.918Z,4.80
2022-08-16T00:56:56.432Z,4.80
2022-08-16T00:57:59.241Z,4.87
2022-08-16T00:58:57.781Z,4.80
2022-08-16T01:00:05.086Z,5.47
2022-08-16T01:01:08.787Z,5.33
2022-08-16T01:02:31.980Z,4.60
2022-08-16T01:03:36.186Z,5.20
2022-08-16T01:04:38.309Z,5.03
2022-08-16T01:05:42.470Z,5.37
2022-08-16T01:06:49.242Z,4.70
2022-08-16T01:08:34.832Z,4.50
2022-08-16T01:09:26.110Z,4.63
2022-08-16T01:10:38.078Z,5.37
2022-08-16T01:11:51.743Z,5.00
2022-08-16T01:12:57.198Z,5.50
2022-08-16T01:14:21.817Z,5.17
2022-08-16T01:15:33.213Z,5.43
2022-08-16T01:16:35.385Z,4.87
2022-08-16T01:17:37.454Z,4.87
2022-08-16T01:18:45.522Z,4.27
2022-08-16T01:19:57.111Z,5.47
2022-08-16T01:21:04.476Z,5.33
2022-08-16T01:22:48.527Z,5.60
2022-08-16T01:24:51.525Z,5.30
2022-08-16T01:25:45.055Z,5.07
2022-08-16T01:27:07.470Z,4.80
2022-08-16T01:28:19.720Z,5.87
2022-08-16T01:29:56.876Z,5.50
2022-08-16T01:30:55.292Z,5.30
2022-08-16T01:31:56.842Z,5.17
2022-08-16T01:33:15.274Z,5.17
2022-08-16T01:34:23.014Z,5.67
2022-08-16T01:35:38.530Z,5.97
2022-08-16T01:36:41.093Z,5.20
2022-08-16T01:37:46.034Z,5.60
2022-08-16T01:38:57.171Z,5.80
2022-08-16T01:39:59.182Z,5.57
2022-08-16T01:41:13.250Z,5.90
2022-08-16T01:42:21.068Z,5.57
2022-08-16T01:43:27.109Z,5.47
2022-08-16T01:44:37.544Z,5.40
2022-08-16T01:45:41.535Z,5.30
2022-08-16T01:46:46.747Z,5.20
2022-08-16T01:47:51.270Z,4.70
2022-08-16T01:48:57.257Z,5.27
2022-08-16T01:50:43.556Z,5.80
2022-08-16T01:51:21.760Z,6.13
2022-08-16T01:52:27.732Z,5.70
2022-08-16T01:53:31.928Z,5.70
2022-08-16T01:54:37.483Z,5.37
2022-08-16T01:55:40.741Z,6.00
2022-08-16T01:56:43.148Z,5.53
2022-08-16T01:57:53.755Z,5.70
2022-08-16T01:59:00.136Z,5.40
2022-08-16T02:00:04.731Z,5.30
2022-08-16T02:01:12.287Z,4.90
2022-08-16T02:02:26.809Z,5.70
2022-08-16T02:03:30.233Z,5.37
2022-08-16T02:04:49.578Z,5.87
2022-08-16T02:05:55.500Z,5.40
2022-08-16T02:06:59.299Z,5.80
2022-08-16T02:08:02.263Z,5.20
2022-08-16T02:09:06.023Z,5.73
2022-08-16T02:10:08.395Z,5.60
2022-08-16T02:11:10.470Z,5.43
2022-08-16T02:12:39.820Z,5.70
2022-08-16T02:13:36.687Z,5.33
2022-08-16T02:14:44.118Z,4.93
2022-08-16T02:15:46.170Z,5.80
2022-08-16T02:16:52.921Z,5.33
2022-08-16T02:17:57.705Z,5.00
2022-08-16T02:19:00.587Z,5.57
2022-08-16T02:20:04.649Z,5.40
2022-08-16T02:21:13.766Z,5.67
2022-08-16T02:22:34.833Z,5.60
2022-08-16T02:23:39.365Z,4.93
2022-08-16T02:24:46.083Z,5.23
2022-08-16T02:25:51.993Z,5.77
2022-08-16T02:26:56.263Z,5.90
2022-08-16T02:27:58.888Z,4.67
2022-08-16T02:29:01.980Z,5.70
2022-08-16T02:30:06.708Z,5.57
2022-08-16T02:31:11.980Z,5.10
2022-08-16T02:32:50.276Z,5.47
2022-08-16T02:33:43.775Z,5.63
2022-08-16T02:34:50.570Z,6.37
2022-08-16T02:35:58.293Z,5.10
2022-08-16T02:37:00.061Z,5.83
2022-08-16T02:38:08.687Z,5.47
2022-08-16T02:39:14.767Z,5.37
2022-08-16T02:40:17.433Z,6.10
2022-08-16T02:41:19.736Z,5.40
2022-08-16T02:42:21.618Z,6.10
2022-08-16T02:43:29.878Z,5.77
2022-08-16T02:44:35.110Z,5.33
2022-08-16T02:45:37.711Z,6.00
2022-08-16T02:46:40.891Z,5.80
2022-08-16T02:48:01.460Z,6.00
2022-08-16T02:49:16.366Z,6.20
2022-08-16T02:50:54.952Z,5.20
2022-08-16T02:51:41.855Z,5.43
2022-08-16T02:52:43.828Z,5.97
2022-08-16T02:53:48.500Z,5.20
2022-08-16T02:54:55.387Z,5.40
2022-08-16T02:55:57.878Z,5.40
2022-08-16T02:57:00.690Z,5.43
2022-08-16T02:58:02.182Z,4.73
2022-08-16T02:59:03.896Z,4.70
2022-08-16T03:00:33.725Z,5.53
2022-08-16T03:01:37.359Z,4.77
2022-08-16T03:02:41.298Z,5.47
2022-08-16T03:04:30.149Z,5.93
2022-08-16T03:05:05.989Z,5.00
2022-08-16T03:06:38.924Z,4.80
2022-08-16T03:07:37.124Z,4.83
2022-08-16T03:08:52.593Z,5.30
2022-08-16T03:09:54.857Z,5.10
2022-08-16T03:10:59.336Z,4.83
2022-08-16T03:12:02.794Z,5.40
2022-08-16T03:13:12.417Z,5.53
2022-08-16T03:14:21.162Z,5.30
2022-08-16T03:15:26.368Z,5.10
2022-08-16T03:16:33.108Z,5.07
2022-08-16T03:17:52.976Z,5.40
2022-08-16T03:18:55.746Z,4.60
2022-08-16T03:20:00.002Z,5.00
2022-08-16T03:21:02.102Z,5.70
2022-08-16T03:22:03.728Z,5.50
2022-08-16T03:23:06.499Z,5.97
2022-08-16T03:24:28.265Z,6.00
2022-08-16T03:25:43.921Z,5.43
2022-08-16T03:26:46.318Z,6.17
2022-08-16T03:27:48.132Z,5.37
2022-08-16T03:28:51.599Z,6.17
2022-08-16T03:29:54.740Z,6.77
2022-08-16T03:30:56.757Z,6.00
2022-08-16T03:32:02.156Z,6.13
2022-08-16T03:33:04.332Z,6.60
2022-08-16T03:34:07.032Z,6.30
2022-08-16T03:35:10.796Z,5.70
2022-08-16T03:36:30.002Z,5.30
2022-08-16T03:37:33.653Z,5.97
2022-08-16T03:38:55.181Z,6.27
2022-08-16T03:40:02.648Z,6.03
2022-08-16T03:41:24.274Z,7.10
2022-08-16T03:42:27.544Z,5.23
2022-08-16T03:43:51.070Z,5.90
2022-08-16T03:44:52.050Z,6.33
2022-08-16T03:46:05.834Z,6.07
2022-08-16T03:47:09.991Z,6.67
2022-08-16T03:48:14.904Z,6.80
2022-08-16T03:49:20.034Z,5.80
2022-08-16T03:50:25.791Z,5.80
2022-08-16T03:51:28.665Z,5.10
2022-08-16T03:52:31.398Z,6.27
2022-08-16T03:53:38.012Z,5.20
2022-08-16T03:54:52.961Z,5.63
2022-08-16T03:55:55.880Z,5.37
2022-08-16T03:56:59.128Z,5.30
2022-08-16T03:58:00.736Z,5.90
2022-08-16T03:59:02.697Z,5.87
2022-08-16T04:00:20.491Z,5.33
2022-08-16T04:01:37.279Z,6.20
2022-08-16T04:02:40.299Z,5.13
2022-08-16T04:03:41.985Z,6.10
2022-08-16T04:04:46.767Z,5.43
2022-08-16T04:05:51.158Z,6.23
2022-08-16T04:06:55.795Z,5.17
2022-08-16T04:07:57.417Z,5.47
2022-08-16T04:08:59.014Z,7.37
2022-08-16T04:10:00.759Z,7.40
2022-08-16T04:11:23.586Z,8.23
2022-08-16T04:13:04.343Z,9.40
2022-08-16T04:13:59.345Z,8.90
2022-08-16T04:15:13.598Z,9.20
2022-08-16T04:16:26.134Z,9.60
2022-08-16T04:17:29.535Z,9.77
2022-08-16T04:18:31.501Z,8.80
2022-08-16T04:19:35.322Z,8.00
2022-08-16T04:20:38.822Z,7.77
2022-08-16T04:21:46.145Z,7.50
2022-08-16T04:22:49.638Z,6.97
2022-08-16T04:23:51.296Z,7.00
2022-08-16T04:24:59.395Z,6.97
2022-08-16T04:26:01.856Z,6.90
2022-08-16T04:27:04.864Z,7.53
2022-08-16T04:28:51.942Z,6.77
2022-08-16T04:29:46.042Z,7.10
2022-08-16T04:30:48.130Z,6.70
2022-08-16T04:31:56.726Z,8.23
2022-08-16T04:33:00.390Z,7.03
2022-08-16T04:34:03.667Z,6.77
2022-08-16T04:35:12.470Z,7.10
2022-08-16T04:36:20.150Z,6.90
2022-08-16T04:37:22.150Z,7.53
2022-08-16T04:38:23.951Z,7.73
2022-08-16T04:39:45.981Z,8.03
2022-08-16T04:40:50.151Z,8.23
2022-08-16T04:41:56.715Z,8.00
2022-08-16T04:43:01.177Z,9.63
2022-08-16T04:44:03.219Z,8.20
2022-08-16T04:45:36.484Z,8.03
2022-08-16T04:47:02.923Z,8.37
2022-08-16T04:48:00.606Z,7.90
2022-08-16T04:49:03.464Z,8.53
2022-08-16T04:50:30.311Z,7.43
2022-08-16T04:51:35.763Z,6.83
2022-08-16T04:52:39.056Z,7.30
2022-08-16T04:53:41.423Z,7.10
2022-08-16T04:54:43.313Z,7.03
2022-08-16T04:55:45.064Z,7.13
2022-08-16T04:56:46.811Z,6.30
2022-08-16T04:57:53.686Z,7.17
2022-08-16T04:58:57.519Z,7.13
2022-08-16T04:59:59.755Z,7.00
2022-08-16T05:01:21.399Z,6.97
2022-08-16T05:02:41.606Z,6.60
2022-08-16T05:03:59.849Z,7.03
2022-08-16T05:05:03.964Z,6.70
2022-08-16T05:06:07.130Z,7.90
2022-08-16T05:07:15.006Z,7.30
2022-08-16T05:08:28.218Z,7.10
2022-08-16T05:09:32.026Z,6.50
2022-08-16T05:10:38.472Z,7.63
2022-08-16T05:11:40.522Z,6.63
2022-08-16T05:12:44.809Z,6.67
2022-08-16T05:13:47.880Z,7.00
2022-08-16T05:15:02.260Z,6.70
2022-08-16T05:16:06.148Z,6.90
2022-08-16T05:17:07.803Z,6.90
2022-08-16T05:18:15.388Z,6.87
2022-08-16T05:19:19.142Z,7.23
2022-08-16T05:20:39.130Z,6.97
2022-08-16T05:21:43.172Z,6.73
2022-08-16T05:22:45.295Z,7.63
2022-08-16T05:23:51.861Z,8.13
2022-08-16T05:25:00.239Z,7.73
2022-08-16T05:26:02.381Z,7.30
2022-08-16T05:27:11.355Z,6.37
2022-08-16T05:28:13.768Z,6.93
2022-08-16T05:29:15.502Z,6.87
2022-08-16T05:30:35.799Z,7.80
2022-08-16T05:31:47.981Z,7.60
2022-08-16T05:32:50.027Z,6.77
2022-08-16T05:33:53.404Z,7.20
2022-08-16T05:34:56.341Z,6.60
2022-08-16T05:35:58.012Z,7.03
2022-08-16T05:36:59.754Z,7.73
2022-08-16T05:38:02.211Z,7.50
2022-08-16T05:39:06.660Z,7.70
2022-08-16T05:40:13.208Z,8.27
2022-08-16T05:41:15.424Z,7.10
2022-08-16T05:42:19.730Z,6.37
2022-08-16T05:43:21.993Z,7.00
2022-08-16T05:44:25.295Z,6.40
2022-08-16T05:45:26.983Z,7.47
2022-08-16T05:46:30.825Z,6.53
2022-08-16T05:47:33.354Z,7.30
2022-08-16T05:48:45.217Z,7.00
2022-08-16T05:49:56.897Z,6.27
2022-08-16T05:50:59.055Z,6.93
2022-08-16T05:52:01.236Z,6.87
2022-08-16T05:53:02.912Z,7.07
2022-08-16T05:54:04.767Z,7.20
2022-08-16T05:55:07.590Z,6.80
2022-08-16T05:56:11.391Z,6.70
2022-08-16T05:57:21.299Z,6.67
2022-08-16T05:58:33.160Z,6.80
2022-08-16T05:59:35.240Z,8.00
2022-08-16T06:00:38.394Z,7.70
2022-08-16T06:01:41.314Z,7.40
2022-08-16T06:02:43.136Z,6.87
2022-08-16T06:03:44.800Z,8.20
2022-08-16T06:04:46.529Z,7.60
2022-08-16T06:05:48.087Z,7.07
2022-08-16T06:06:56.480Z,7.57
2022-08-16T06:07:59.227Z,8.20
2022-08-16T06:09:00.962Z,6.90
2022-08-16T06:10:02.737Z,6.70
2022-08-16T06:11:10.298Z,7.73
2022-08-16T06:12:27.953Z,6.47
2022-08-16T06:13:32.621Z,7.73
2022-08-16T06:14:34.675Z,8.03
2022-08-16T06:15:37.956Z,9.03
2022-08-16T06:16:43.312Z,7.70
2022-08-16T06:17:45.649Z,7.07
2022-08-16T06:18:47.901Z,7.70
2022-08-16T06:19:49.428Z,7.30
2022-08-16T06:20:55.726Z,7.50
2022-08-16T06:21:57.699Z,6.73
2022-08-16T06:23:03.447Z,7.03
2022-08-16T06:24:54.632Z,7.10
2022-08-16T06:25:35.975Z,6.50
2022-08-16T06:26:45.932Z,6.53
2022-08-16T06:27:59.363Z,7.50
2022-08-16T06:29:02.997Z,8.10
2022-08-16T06:30:08.156Z,8.10
2022-08-16T06:31:12.469Z,7.87
2022-08-16T06:32:27.893Z,7.23
2022-08-16T06:33:30.153Z,7.23
2022-08-16T06:34:55.297Z,7.60
2022-08-16T06:35:59.722Z,6.50
2022-08-16T06:37:01.549Z,6.10
2022-08-16T06:38:04.598Z,7.03
2022-08-16T06:39:06.380Z,6.10
2022-08-16T06:40:12.420Z,6.40
2022-08-16T06:41:14.766Z,6.17
2022-08-16T06:42:18.381Z,6.53
2022-08-16T06:43:21.387Z,6.20
2022-08-16T06:44:29.344Z,6.40
2022-08-16T06:45:31.020Z,5.30
2022-08-16T06:46:35.141Z,5.90
2022-08-16T06:47:52.450Z,5.73
2022-08-16T06:48:55.576Z,5.43
2022-08-16T06:49:59.059Z,5.63
2022-08-16T06:51:05.930Z,5.40
2022-08-16T06:52:59.586Z,5.80
2022-08-16T06:53:33.787Z,6.90
2022-08-16T06:54:37.413Z,8.43
2022-08-16T06:55:40.178Z,8.50
2022-08-16T06:56:42.562Z,9.00
2022-08-16T06:57:44.239Z,9.17
2022-08-16T06:58:46.642Z,9.13
2022-08-16T06:59:52.473Z,8.80
2022-08-16T07:01:01.787Z,8.40
2022-08-16T07:02:04.880Z,7.93
2022-08-16T07:03:27.721Z,8.00
2022-08-16T07:04:32.323Z,6.80
2022-08-16T07:05:41.452Z,5.97
2022-08-16T07:06:44.169Z,6.70
2022-08-16T07:07:50.719Z,6.20
2022-08-16T07:08:52.610Z,5.67
2022-08-16T07:09:55.023Z,5.37
2022-08-16T07:10:58.708Z,5.40
2022-08-16T07:12:03.794Z,5.50
2022-08-16T07:13:11.999Z,5.03
2022-08-16T07:14:24.121Z,6.20
2022-08-16T07:15:27.087Z,5.40
2022-08-16T07:16:30.325Z,5.90
2022-08-16T07:17:33.492Z,5.33
2022-08-16T07:18:36.763Z,5.30
2022-08-16T07:20:29.260Z,4.47
2022-08-16T07:21:02.520Z,5.50
2022-08-16T07:22:04.259Z,4.47
2022-08-16T07:23:13.497Z,5.23
2022-08-16T07:24:30.270Z,5.30
2022-08-16T07:25:33.799Z,5.03
2022-08-16T07:26:41.956Z,5.07
2022-08-16T07:27:51.748Z,3.93
2022-08-16T07:28:53.445Z,4.07
2022-08-16T07:29:55.500Z,3.97
2022-08-16T07:30:59.920Z,3.90
2022-08-16T07:32:02.466Z,3.67
2022-08-16T07:33:07.117Z,4.20
2022-08-16T07:34:10.047Z,4.17
2022-08-16T07:35:12.302Z,5.00
2022-08-16T07:36:22.205Z,4.70
2022-08-16T07:37:24.208Z,3.87
2022-08-16T07:38:34.172Z,4.40
2022-08-16T07:39:43.499Z,3.90
2022-08-16T07:40:59.520Z,3.80
2022-08-16T07:42:02.154Z,4.60
2022-08-16T07:43:08.633Z,3.67
2022-08-16T07:44:16.762Z,4.50
2022-08-16T07:45:19.392Z,4.57
2022-08-16T07:46:37.477Z,3.50
2022-08-16T07:47:42.075Z,3.57
2022-08-16T07:48:43.983Z,4.20
2022-08-16T07:49:53.131Z,3.83
2022-08-16T07:51:02.410Z,4.13
2022-08-16T07:52:18.743Z,3.67
2022-08-16T07:53:22.280Z,3.30
2022-08-16T07:54:37.987Z,3.27
2022-08-16T07:55:47.949Z,3.70
2022-08-16T07:56:50.071Z,3.77
2022-08-16T07:58:01.056Z,3.40
2022-08-16T07:59:06.097Z,3.53
2022-08-16T08:00:08.577Z,3.80
2022-08-16T08:01:20.521Z,3.73
2022-08-16T08:02:28.437Z,3.43
2022-08-16T08:03:36.099Z,4.43
2022-08-16T08:04:40.736Z,3.30
2022-08-16T08:05:43.038Z,3.97
2022-08-16T08:06:45.514Z,4.43
2022-08-16T08:07:57.654Z,3.40
2022-08-16T08:09:00.345Z,3.60
2022-08-16T08:10:04.653Z,3.27
2022-08-16T08:11:09.145Z,3.90
2022-08-16T08:12:32.170Z,3.93
2022-08-16T08:13:42.692Z,4.60
2022-08-16T08:14:46.281Z,4.10
2022-08-16T08:15:52.578Z,4.90
2022-08-16T08:16:54.405Z,4.07
2022-08-16T08:17:56.613Z,4.10
2022-08-16T08:19:03.702Z,4.10
2022-08-16T08:20:07.967Z,4.50
2022-08-16T08:21:09.832Z,5.00
2022-08-16T08:22:19.404Z,5.20
2022-08-16T08:23:25.464Z,4.40
2022-08-16T08:24:31.486Z,4.60
2022-08-16T08:25:54.578Z,4.63
2022-08-16T08:26:59.208Z,4.10
2022-08-16T08:28:01.306Z,4.40
2022-08-16T08:29:03.343Z,3.57
2022-08-16T08:30:49.356Z,3.67
2022-08-16T08:31:36.305Z,4.30
2022-08-16T08:33:01.941Z,4.20
2022-08-16T08:34:00.564Z,4.40
2022-08-16T08:35:07.583Z,4.73
2022-08-16T08:36:11.590Z,4.80
2022-08-16T08:37:23.597Z,3.70
2022-08-16T08:38:44.206Z,4.27
2022-08-16T08:39:54.752Z,4.27
2022-08-16T08:40:57.089Z,3.77
2022-08-16T08:42:03.677Z,4.30
2022-08-16T08:43:11.968Z,4.27
2022-08-16T08:44:29.883Z,4.30
2022-08-16T08:45:52.593Z,4.40
2022-08-16T08:47:00.660Z,4.07
2022-08-16T08:48:03.977Z,3.90
2022-08-16T08:49:08.724Z,4.00
2022-08-16T08:50:11.047Z,4.60
2022-08-16T08:51:14.042Z,3.60
2022-08-16T08:52:35.088Z,3.70
2022-08-16T08:53:38.171Z,4.23
2022-08-16T08:54:40.125Z,3.70
2022-08-16T08:55:42.597Z,4.27
2022-08-16T08:56:45.791Z,3.53
2022-08-16T08:57:47.942Z,3.60
2022-08-16T08:58:54.935Z,3.90
2022-08-16T09:00:07.983Z,4.33
2022-08-16T09:01:31.444Z,4.30
2022-08-16T09:02:38.626Z,3.80
2022-08-16T09:03:40.920Z,3.80
2022-08-16T09:04:44.065Z,4.23
2022-08-16T09:05:51.852Z,3.70
2022-08-16T09:06:54.037Z,3.53
2022-08-16T09:08:01.624Z,3.63
2022-08-16T09:09:07.242Z,4.10
2022-08-16T09:10:20.278Z,3.20
2022-08-16T09:11:23.288Z,3.90
2022-08-16T09:12:42.522Z,3.73
2022-08-16T09:13:52.058Z,3.30
2022-08-16T09:14:54.955Z,4.30
2022-08-16T09:15:56.749Z,3.53
2022-08-16T09:17:02.996Z,3.30
2022-08-16T09:18:26.144Z,3.30
2022-08-16T09:19:32.302Z,3.90
2022-08-16T09:20:35.485Z,3.77
2022-08-16T09:21:57.023Z,3.93
2022-08-16T09:22:59.530Z,3.90
2022-08-16T09:24:02.439Z,3.80
2022-08-16T09:25:12.910Z,4.10
2022-08-16T09:26:45.632Z,3.73
2022-08-16T09:27:56.467Z,4.05
2022-08-16T09:29:14.722Z,4.30
2022-08-16T09:30:34.436Z,3.38
2022-08-16T09:31:41.967Z,3.22
2022-08-16T09:32:47.093Z,3.20
2022-08-16T09:33:51.834Z,3.03
2022-08-16T09:34:53.992Z,3.28
2022-08-16T09:36:01.177Z,3.25
2022-08-16T09:37:03.123Z,3.40
2022-08-16T09:38:31.498Z,2.92
2022-08-16T09:39:41.557Z,2.65
2022-08-16T09:40:47.050Z,2.53
2022-08-16T09:41:53.807Z,3.08
2022-08-16T09:42:59.207Z,3.08
2022-08-16T09:45:12.235Z,3.05
2022-08-16T09:45:31.315Z,3.17
2022-08-16T09:46:44.615Z,3.45
2022-08-16T09:47:56.554Z,3.00
2022-08-16T09:48:59.446Z,2.65
2022-08-16T09:50:11.883Z,3.70
2022-08-16T09:51:13.947Z,3.25
2022-08-16T09:52:15.830Z,3.63
2022-08-16T09:53:22.944Z,3.67
2022-08-16T09:54:32.742Z,3.47
2022-08-16T09:55:44.495Z,2.60
2022-08-16T09:56:52.870Z,2.78
2022-08-16T09:57:55.184Z,3.10
2022-08-16T09:59:05.743Z,3.17
2022-08-16T10:00:44.858Z,3.33
2022-08-16T10:01:36.416Z,3.35
2022-08-16T10:02:44.093Z,3.15
2022-08-16T10:04:02.014Z,3.80
2022-08-16T10:05:05.543Z,3.97
2022-08-16T10:06:07.613Z,3.22
2022-08-16T10:07:15.898Z,3.25
2022-08-16T10:08:25.939Z,3.47
2022-08-16T10:09:45.274Z,3.92
2022-08-16T10:11:09.574Z,3.00
2022-08-16T10:12:29.870Z,3.13
2022-08-16T10:13:34.289Z,3.20
2022-08-16T10:14:36.503Z,3.63
2022-08-16T10:15:40.911Z,3.50
2022-08-16T10:16:45.705Z,3.05
2022-08-16T10:18:00.186Z,3.58
2022-08-16T10:19:06.567Z,3.40
2022-08-16T10:20:11.373Z,3.55
2022-08-16T10:21:20.050Z,3.30
2022-08-16T10:22:24.353Z,3.67
2022-08-16T10:23:26.612Z,3.88
2022-08-16T10:24:30.367Z,3.50
2022-08-16T10:27:17.502Z,2.97
2022-08-16T10:27:20.325Z,3.58
2022-08-16T10:28:28.698Z,3.23
2022-08-16T10:30:00.228Z,3.58
2022-08-16T10:30:56.588Z,3.87
2022-08-16T10:32:00.820Z,3.80
2022-08-16T10:33:05.480Z,3.40
2022-08-16T10:34:30.785Z,4.17
2022-08-16T10:35:33.131Z,3.53
2022-08-16T10:36:39.103Z,3.70
2022-08-16T10:37:41.401Z,3.87
2022-08-16T10:38:43.183Z,4.20
2022-08-16T10:39:44.801Z,4.23
2022-08-16T10:40:48.174Z,4.20
2022-08-16T10:41:49.803Z,3.67
2022-08-16T10:42:51.742Z,3.70
2022-08-16T10:43:53.322Z,3.47
2022-08-16T10:44:55.080Z,4.53
2022-08-16T10:46:00.715Z,3.10
2022-08-16T10:47:03.803Z,3.13
2022-08-16T10:48:28.033Z,3.22
2022-08-16T10:49:30.932Z,3.67
2022-08-16T10:50:33.861Z,3.90
2022-08-16T10:52:01.292Z,3.50
2022-08-16T10:53:06.511Z,3.70
2022-08-16T10:54:29.816Z,3.95
2022-08-16T10:55:40.627Z,3.67
2022-08-16T10:56:56.147Z,3.75
2022-08-16T10:58:00.101Z,3.00
2022-08-16T11:00:39.144Z,3.03
2022-08-16T11:01:44.012Z,3.05
2022-08-16T11:02:58.726Z,3.63
2022-08-16T11:04:02.817Z,2.92
2022-08-16T11:05:24.512Z,4.05
2022-08-16T11:06:26.854Z,2.85
2022-08-16T11:07:52.198Z,2.72
2022-08-16T11:09:21.035Z,2.70
2022-08-16T11:10:20.027Z,3.15
2022-08-16T11:11:22.541Z,2.80
2022-08-16T11:12:24.383Z,2.83
2022-08-16T11:15:18.530Z,2.90
2022-08-16T11:16:26.801Z,2.55
2022-08-16T11:17:32.703Z,2.83
2022-08-16T11:19:04.077Z,2.53
2022-08-16T11:21:28.512Z,3.03
2022-08-16T11:22:46.975Z,2.92
2022-08-16T11:23:57.824Z,3.13
2022-08-16T11:26:06.079Z,3.15
2022-08-16T11:26:24.117Z,2.58
2022-08-16T11:27:35.549Z,2.92
2022-08-16T11:29:59.789Z,3.13
2022-08-16T11:31:03.270Z,3.45
2022-08-16T11:32:06.042Z,3.08
2022-08-16T11:33:11.018Z,2.35
2022-08-16T11:34:16.528Z,2.70
2022-08-16T11:37:00.984Z,2.65
2022-08-16T11:38:05.973Z,2.95
2022-08-16T11:39:28.912Z,2.53
2022-08-16T11:40:37.996Z,3.30
2022-08-16T11:41:40.116Z,2.45
2022-08-16T11:42:46.456Z,2.35
2022-08-16T11:43:48.043Z,2.50
2022-08-16T11:44:52.649Z,2.08
2022-08-16T11:46:01.470Z,2.53
2022-08-16T11:47:21.952Z,2.00
2022-08-16T11:48:28.937Z,2.00
2022-08-16T11:49:30.825Z,1.80
2022-08-16T11:50:33.952Z,1.83
2022-08-16T11:51:35.560Z,2.35
2022-08-16T11:52:38.267Z,2.53
2022-08-16T11:53:40.519Z,2.42
2022-08-16T11:54:42.384Z,2.50
2022-08-16T11:55:47.927Z,2.30
2022-08-16T11:56:57.170Z,2.58
2022-08-16T11:58:00.435Z,2.40
2022-08-16T11:59:02.061Z,2.83
2022-08-16T12:00:10.380Z,2.75
2022-08-16T12:01:55.468Z,2.17
2022-08-16T12:02:54.165Z,3.15
2022-08-16T12:03:56.948Z,2.58
2022-08-16T12:04:59.005Z,2.78
2022-08-16T12:06:25.550Z,2.50
2022-08-16T12:07:33.341Z,2.15
2022-08-16T12:08:35.507Z,2.97
2022-08-16T12:09:43.096Z,2.72
2022-08-16T12:10:46.573Z,2.45
2022-08-16T12:11:53.200Z,2.13
2022-08-16T12:12:55.596Z,2.47
2022-08-16T12:14:05.139Z,2.50
2022-08-16T12:15:07.716Z,2.35
2022-08-16T12:16:10.521Z,2.67
2022-08-16T12:17:12.218Z,2.78
2022-08-16T12:18:20.878Z,2.90
2022-08-16T12:19:34.075Z,3.00
2022-08-16T12:20:40.199Z,2.20
2022-08-16T12:21:58.704Z,2.38
2022-08-16T12:23:01.128Z,2.60
2022-08-16T12:24:05.747Z,2.45
2022-08-16T12:25:12.594Z,2.40
2022-08-16T12:26:17.371Z,2.60
2022-08-16T12:27:24.066Z,2.20
2022-08-16T12:28:52.105Z,2.88
2022-08-16T12:29:47.485Z,2.22
2022-08-16T12:30:49.242Z,2.55
2022-08-16T12:32:01.223Z,2.38
2022-08-16T12:33:25.451Z,2.30
2022-08-16T12:34:29.025Z,2.22
2022-08-16T12:35:33.503Z,2.28
2022-08-16T12:36:35.383Z,2.30
2022-08-16T12:37:37.009Z,2.20
2022-08-16T12:38:48.383Z,1.92
2022-08-16T12:39:55.613Z,2.13
2022-08-16T12:40:58.194Z,2.17
2022-08-16T12:42:02.311Z,2.58
2022-08-16T12:43:06.263Z,2.10
2022-08-16T12:44:08.498Z,2.17
2022-08-16T12:45:15.004Z,2.15
2022-08-16T12:46:16.652Z,2.00
2022-08-16T12:47:38.056Z,2.33
2022-08-16T12:48:58.015Z,1.90
2022-08-16T12:49:59.941Z,1.90
2022-08-16T12:51:04.045Z,1.98
2022-08-16T12:52:05.998Z,2.53
2022-08-16T12:53:07.844Z,2.30
2022-08-16T12:54:12.016Z,2.17
2022-08-16T12:55:14.401Z,2.35
2022-08-16T12:56:16.368Z,2.13
2022-08-16T12:57:24.396Z,2.30
2022-08-16T12:58:48.318Z,2.28
2022-08-16T12:59:53.851Z,2.20
2022-08-16T13:00:58.445Z,2.13
2022-08-16T13:02:02.107Z,2.05
2022-08-16T13:03:04.781Z,2.50
2022-08-16T13:04:12.076Z,2.38
2022-08-16T13:05:22.161Z,2.40
2022-08-16T13:06:29.948Z,2.15
2022-08-16T13:07:37.516Z,2.10
2022-08-16T13:08:45.363Z,2.10
2022-08-16T13:09:56.597Z,2.20
2022-08-16T13:10:59.004Z,1.90
2022-08-16T13:12:15.878Z,2.50
2022-08-16T13:13:24.897Z,2.10
2022-08-16T13:14:32.883Z,2.30
2022-08-16T13:15:36.156Z,2.00
2022-08-16T13:16:53.467Z,1.90
2022-08-16T13:17:57.796Z,1.90
2022-08-16T13:19:01.033Z,2.42
2022-08-16T13:20:11.300Z,1.85
2022-08-16T13:21:13.301Z,2.00
2022-08-16T13:22:19.576Z,1.95
2022-08-16T13:23:22.347Z,2.00
2022-08-16T13:24:25.967Z,1.55
2022-08-16T13:25:29.767Z,1.60
2022-08-16T13:26:31.401Z,1.73
2022-08-16T13:28:01.417Z,1.88
2022-08-16T13:28:55.209Z,1.88
2022-08-16T13:29:57.584Z,1.65
2022-08-16T13:31:01.175Z,1.95
2022-08-16T13:32:06.071Z,1.77
2022-08-16T13:33:18.921Z,1.70
2022-08-16T13:34:27.908Z,2.25
2022-08-16T13:35:34.350Z,1.92
2022-08-16T13:36:48.436Z,1.90
2022-08-16T13:37:52.123Z,1.70
2022-08-16T13:38:55.715Z,1.70
2022-08-16T13:39:58.930Z,2.28
2022-08-16T13:41:02.516Z,1.80
2022-08-16T13:42:09.950Z,1.30
2022-08-16T13:43:13.121Z,1.90
2022-08-16T13:44:18.978Z,1.70
2022-08-16T13:45:22.572Z,1.83
2022-08-16T13:46:24.243Z,1.77
2022-08-16T13:47:30.010Z,2.17
2022-08-16T13:48:42.699Z,2.00
2022-08-16T13:49:46.603Z,2.20
2022-08-16T13:50:49.097Z,1.50
2022-08-16T13:51:53.890Z,1.70
2022-08-16T13:52:56.077Z,1.83
2022-08-16T13:54:03.923Z,1.65
2022-08-16T13:55:06.915Z,2.22
2022-08-16T13:56:25.024Z,2.30
2022-08-16T13:58:26.782Z,2.10
2022-08-16T13:58:54.933Z,1.67
2022-08-16T13:59:57.547Z,1.88
2022-08-16T14:01:01.081Z,2.00
2022-08-16T14:02:06.639Z,1.88
2022-08-16T14:03:08.993Z,1.88
2022-08-16T14:04:19.014Z,1.70
2022-08-16T14:05:28.524Z,1.60
2022-08-16T14:06:31.202Z,1.60
2022-08-16T14:07:34.465Z,1.45
2022-08-16T14:08:41.926Z,1.70
2022-08-16T14:09:44.856Z,1.63
2022-08-16T14:10:47.044Z,1.67
2022-08-16T14:11:53.673Z,1.80
2022-08-16T14:12:55.536Z,2.20
2022-08-16T14:13:59.131Z,1.92
2022-08-16T14:15:01.683Z,2.03
2022-08-16T14:16:04.900Z,2.47
2022-08-16T14:17:14.891Z,2.28
2022-08-16T14:18:20.266Z,2.28
2022-08-16T14:19:22.475Z,2.22
2022-08-16T14:20:25.816Z,2.47
2022-08-16T14:21:27.543Z,2.20
2022-08-16T14:22:42.495Z,2.30
2022-08-16T14:23:44.426Z,1.98
2022-08-16T14:24:49.990Z,2.15
2022-08-16T14:25:53.718Z,2.15
2022-08-16T14:26:56.157Z,2.25
2022-08-16T14:27:58.542Z,2.20
2022-08-16T14:29:03.572Z,2.03
2022-08-16T14:30:07.310Z,2.33
2022-08-16T14:31:09.560Z,2.40
2022-08-16T14:32:27.024Z,2.25
2022-08-16T14:33:33.413Z,1.83
2022-08-16T14:34:35.065Z,1.70
2022-08-16T14:35:49.175Z,2.28
2022-08-16T14:36:52.988Z,1.90
2022-08-16T14:37:57.212Z,2.00
2022-08-16T14:39:00.310Z,2.20
2022-08-16T14:40:03.328Z,1.67
2022-08-16T14:41:05.333Z,1.52
2022-08-16T14:42:17.973Z,1.70
2022-08-16T14:43:19.517Z,2.25
2022-08-16T14:44:21.455Z,2.00
2022-08-16T14:45:25.794Z,2.15
2022-08-16T14:46:28.808Z,1.98
2022-08-16T14:47:34.031Z,2.10
2022-08-16T14:48:36.701Z,2.00
2022-08-16T14:49:40.637Z,1.90
2022-08-16T14:50:42.379Z,2.13
2022-08-16T14:51:46.408Z,1.83
2022-08-16T14:52:56.190Z,1.83
2022-08-16T14:54:01.359Z,1.90
2022-08-16T14:55:05.200Z,1.90
2022-08-16T14:56:06.761Z,2.33
2022-08-16T14:57:08.812Z,2.35
2022-08-16T14:58:19.525Z,2.15
2022-08-16T14:59:21.997Z,2.47
2022-08-16T15:00:33.800Z,1.90
2022-08-16T15:01:57.903Z,2.25
2022-08-16T15:03:02.412Z,1.88
2022-08-16T15:04:04.349Z,1.80
2022-08-16T15:05:07.908Z,2.17
2022-08-16T15:06:13.168Z,2.05